createdAt,value
2023-01-31T00:08:31.315Z,88.31
2023-01-31T00:18:31.351Z,87.96
2023-01-31T00:28:31.671Z,87.85
2023-01-31T00:38:31.718Z,88.62
2023-01-31T00:48:34.516Z,88.37
2023-01-31T00:58:32.169Z,88.20
2023-01-31T01:08:32.666Z,88.42
2023-01-31T01:18:32.587Z,89.08
2023-01-31T01:28:32.885Z,89.18
2023-01-31T01:38:32.981Z,88.58
2023-01-31T01:48:33.050Z,87.02
2023-01-31T01:58:33.278Z,88.20
2023-01-31T02:08:33.627Z,88.62
2023-01-31T02:18:33.652Z,88.66
2023-01-31T02:28:34.012Z,88.45
2023-01-31T02:38:34.040Z,88.70
2023-01-31T02:48:34.369Z,88.70
2023-01-31T02:58:34.443Z,88.70
2023-01-31T03:08:35.660Z,88.39
2023-01-31T03:18:34.697Z,88.57
2023-01-31T03:28:35.003Z,89.51
2023-01-31T03:38:35.083Z,89.45
2023-01-31T03:48:35.194Z,89.76
2023-01-31T03:58:35.226Z,90.08
2023-01-31T04:08:35.450Z,91.22
2023-01-31T04:18:37.779Z,91.69
2023-01-31T04:28:36.710Z,92.73
2023-01-31T04:38:35.747Z,92.52
2023-01-31T04:48:36.585Z,92.83
2023-01-31T04:58:36.769Z,93.04
2023-01-31T05:08:36.541Z,93.77
2023-01-31T05:18:36.422Z,94.09
2023-01-31T05:28:36.725Z,93.67
2023-01-31T05:38:37.090Z,93.25
2023-01-31T05:48:37.088Z,93.25
2023-01-31T05:58:37.205Z,92.94
2023-01-31T06:08:37.375Z,93.46
2023-01-31T06:18:37.393Z,93.35
2023-01-31T06:28:37.722Z,93.25
2023-01-31T06:38:37.768Z,93.15
2023-01-31T06:48:38.096Z,93.61
2023-01-31T06:58:40.393Z,94.80
2023-01-31T07:08:38.265Z,94.71
2023-01-31T07:18:38.524Z,94.19
2023-01-31T07:28:38.837Z,93.63
2023-01-31T07:38:38.868Z,93.00
2023-01-31T07:48:39.211Z,93.21
2023-01-31T07:58:39.249Z,93.37
2023-01-31T08:08:39.582Z,92.18
2023-01-31T08:18:39.620Z,88.87
2023-01-31T08:28:39.950Z,87.27
2023-01-31T08:38:40.049Z,84.48
2023-01-31T08:48:40.255Z,83.53
2023-01-31T08:58:40.292Z,81.94
2023-01-31T09:08:40.580Z,78.58
2023-01-31T09:18:40.632Z,72.98
2023-01-31T09:28:40.962Z,70.97
2023-01-31T09:38:41.006Z,70.94
2023-01-31T09:48:41.321Z,67.88
2023-01-31T09:58:41.357Z,65.70
2023-01-31T10:08:41.687Z,65.05
2023-01-31T10:18:41.724Z,63.68
2023-01-31T10:28:42.069Z,63.31
2023-01-31T10:38:42.101Z,61.58
2023-01-31T10:48:43.605Z,61.60
2023-01-31T10:58:42.542Z,62.07
2023-01-31T11:08:42.784Z,60.23
2023-01-31T11:18:43.036Z,58.70
2023-01-31T11:28:44.301Z,59.36
2023-01-31T11:38:43.363Z,60.08
2023-01-31T11:48:43.660Z,61.40
2023-01-31T11:58:43.751Z,60.05
2023-01-31T12:08:43.808Z,58.84
2023-01-31T12:18:44.046Z,59.46
2023-01-31T12:28:44.383Z,58.50
2023-01-31T12:38:44.473Z,58.40
2023-01-31T12:48:45.708Z,58.92
2023-01-31T12:58:45.180Z,57.89
2023-01-31T13:08:53.896Z,55.85
2023-01-31T13:18:46.125Z,53.56
2023-01-31T13:28:45.404Z,61.85
2023-01-31T13:38:45.448Z,58.10
2023-01-31T13:48:48.162Z,59.56
2023-01-31T13:58:45.802Z,60.33
2023-01-31T14:08:46.028Z,58.51
2023-01-31T14:18:46.356Z,63.94
2023-01-31T14:28:46.401Z,65.16
2023-01-31T14:38:46.622Z,66.43
2023-01-31T14:48:46.867Z,68.76
2023-01-31T14:58:47.105Z,68.90
2023-01-31T15:08:49.517Z,69.03
2023-01-31T15:18:47.568Z,67.45
2023-01-31T15:28:47.817Z,67.58
2023-01-31T15:38:48.145Z,68.58
2023-01-31T15:48:48.308Z,63.59
2023-01-31T15:58:48.545Z,61.42
2023-01-31T16:08:48.881Z,61.40
2023-01-31T16:18:48.976Z,60.39
2023-01-31T16:28:52.318Z,60.91
2023-01-31T16:38:49.355Z,66.51
2023-01-31T16:48:49.302Z,66.78
2023-01-31T16:58:49.561Z,65.92
2023-01-31T17:08:49.790Z,62.82
2023-01-31T17:18:49.808Z,65.57
2023-01-31T17:29:00.951Z,61.20
2023-01-31T17:38:52.911Z,65.05
2023-01-31T17:48:50.522Z,70.05
2023-01-31T17:58:50.787Z,71.12
2023-01-31T18:08:53.212Z,70.70
2023-01-31T18:18:52.360Z,73.50
2023-01-31T18:28:51.541Z,74.98
2023-01-31T18:38:51.619Z,75.63
2023-01-31T18:48:55.211Z,75.95
2023-01-31T18:58:51.760Z,76.12
2023-01-31T19:08:52.399Z,75.84
2023-01-31T19:18:52.236Z,75.84
2023-01-31T19:28:52.819Z,74.43
2023-01-31T19:38:52.994Z,76.71
2023-01-31T19:48:53.222Z,78.61
2023-01-31T19:58:53.427Z,79.96
2023-01-31T20:08:53.720Z,80.83
2023-01-31T20:18:54.483Z,80.31
2023-01-31T20:28:53.901Z,80.62
2023-01-31T20:38:54.050Z,80.21
2023-01-31T20:48:54.256Z,79.44
2023-01-31T20:58:54.334Z,79.90
2023-01-31T21:08:54.596Z,80.10
2023-01-31T21:18:54.409Z,80.76
2023-01-31T21:28:54.613Z,82.46
2023-01-31T21:38:54.664Z,83.64
2023-01-31T21:48:56.923Z,83.95
2023-01-31T21:58:55.168Z,83.18
2023-01-31T22:08:55.564Z,83.33
2023-01-31T22:18:55.486Z,84.05
2023-01-31T22:28:55.812Z,84.27
2023-01-31T22:38:55.890Z,84.27
2023-01-31T22:48:56.190Z,84.27
2023-01-31T22:58:56.234Z,83.53
2023-01-31T23:08:56.605Z,83.95
2023-01-31T23:18:56.657Z,84.09
2023-01-31T23:28:57.023Z,84.20
2023-01-31T23:38:57.191Z,83.58
2023-01-31T23:48:59.301Z,84.23
2023-01-31T23:58:57.353Z,84.75
